Ringoes, NJ (08551)

10:33 PM EDT on August 30, 2015 (GMT -0400)
East Amwell Rt 514 | | Change Station
CLOSE
Current Station
Personal Weather Station
Location: Ringoes, NJ
Elevation: 262 ft
Nearby Weather Stations

Elev 262 ft 40.45 °N, 74.85 °W | Updated 6 seconds ago

Partly Cloudy
Partly Cloudy
77.5 °F
Feels Like 79 °F
N
2.0
Wind Variable Wind from SW
Gusts 4.0 mph

Today
High -- | Low -- °F
--% Chance of Precip.
Yesterday
High -- | Low -- °F
Precip. -- in
6:24 AM 7:34 PM
Full, 97% visible
Pressure 30.03 in
Visibility 10.0 miles
Clouds Mostly Cloudy 11000 ft
Heat Index 79 °F
Dew Point 68 °F
Humidity 72%
Rainfall 0.00 in
Snow Depth Not available.
UV 0 out of 12
Pollen 9.40 out of 12
Air Quality Not available.
Flu Activity Not available.
METAR KTTN 310153Z AUTO 24006KT 10SM BKN110 27/18 A3005 RMK AO2 SLP169 T02670183
Pressure 30.03 in
Visibility 10.0 miles
Clouds Mostly Cloudy 11000 ft
Heat Index 79 °F
Dew Point 68 °F
Humidity 72%
Rainfall 0.00 in
Snow Depth Not available.
UV 0 out of 12
Pollen 9.40 out of 12
Air Quality Not available.
Flu Activity Not available.
METAR KTTN 310153Z AUTO 24006KT 10SM BKN110 27/18 A3005 RMK AO2 SLP169 T02670183

10-Day Weather Forecast

×

Almanac

Astronomy

Aug. 30, 2015 Rise Set
Actual Time
Civil Twilight
Nautical Twilight
Astronomical Twilight
Moon
Length of Visible Light
Length of Day
Tomorrow will be .
, % of the Moon is Illuminated

Today's Extremes

State Highs State Lows

Community

WunderPhotos

Upload Photos

1,851,164 photos uploaded!

WunderBlogs® & News

Nearby

Air Quality

  Air Quality AQ Index Pollutant
Not available.

Snow Depth

Station Depth Elevation

Earthquake Activity

City Distance Mag. Time & Date
Minimum magnitude displayed is 2.5.

Coastal Water Temperatures

Place Temperature

Stations

Nearby Weather Stations

Station Location Temp. Windchill Dew Point Humidity Wind Precip. Elev Updated Type